sensor_id;sensor_type;location;lat;lon;timestamp;pressure;altitude;pressure_sealevel;temperature;humidity
56737;BME280;42618;51.226;4.910;2023-05-07T00:01:29;49703.09;;;-146.94;100.00
56737;BME280;42618;51.226;4.910;2023-05-07T00:03:56;49697.09;;;-146.94;100.00
56737;BME280;42618;51.226;4.910;2023-05-07T00:06:23;49738.97;;;-146.94;100.00
56737;BME280;42618;51.226;4.910;2023-05-07T00:08:50;49713.06;;;-146.94;100.00
56737;BME280;42618;51.226;4.910;2023-05-07T00:11:17;49689.13;;;-146.94;100.00
56737;BME280;42618;51.226;4.910;2023-05-07T00:13:43;49667.19;;;-146.94;100.00
56737;BME280;42618;51.226;4.910;2023-05-07T00:16:10;49701.09;;;-146.94;100.00
56737;BME280;42618;51.226;4.910;2023-05-07T00:18:37;49711.06;;;-146.94;100.00
56737;BME280;42618;51.226;4.910;2023-05-07T00:21:04;49683.16;;;-146.94;100.00
56737;BME280;42618;51.226;4.910;2023-05-07T00:23:31;49667.19;;;-146.94;100.00
56737;BME280;42618;51.226;4.910;2023-05-07T00:25:57;49653.25;;;-146.94;100.00
56737;BME280;42618;51.226;4.910;2023-05-07T00:28:24;49731.00;;;-146.94;100.00
56737;BME280;42618;51.226;4.910;2023-05-07T00:30:51;49669.19;;;-146.94;100.00
56737;BME280;42618;51.226;4.910;2023-05-07T00:33:17;49734.97;;;-146.94;100.00
56737;BME280;42618;51.226;4.910;2023-05-07T00:35:44;49663.22;;;-146.94;100.00
56737;BME280;42618;51.226;4.910;2023-05-07T00:38:11;49707.06;;;-146.94;100.00
56737;BME280;42618;51.226;4.910;2023-05-07T00:40:37;49711.06;;;-146.94;100.00
56737;BME280;42618;51.226;4.910;2023-05-07T00:43:04;49689.13;;;-146.94;100.00
56737;BME280;42618;51.226;4.910;2023-05-07T00:45:31;49645.28;;;-146.94;100.00
56737;BME280;42618;51.226;4.910;2023-05-07T00:48:00;49725.00;;;-146.94;100.00
56737;BME280;42618;51.226;4.910;2023-05-07T00:50:28;49675.19;;;-146.94;100.00
56737;BME280;42618;51.226;4.910;2023-05-07T00:52:56;49719.03;;;-146.94;100.00
56737;BME280;42618;51.226;4.910;2023-05-07T00:55:23;49707.06;;;-146.94;100.00
56737;BME280;42618;51.226;4.910;2023-05-07T00:57:51;49689.13;;;-146.94;100.00
56737;BME280;42618;51.226;4.910;2023-05-07T01:00:18;49703.09;;;-146.94;100.00
56737;BME280;42618;51.226;4.910;2023-05-07T01:02:46;49736.97;;;-146.94;100.00
56737;BME280;42618;51.226;4.910;2023-05-07T01:05:15;49707.06;;;-146.94;100.00
56737;BME280;42618;51.226;4.910;2023-05-07T01:07:44;49734.97;;;-146.94;100.00
56737;BME280;42618;51.226;4.910;2023-05-07T01:10:12;49703.09;;;-146.94;100.00
56737;BME280;42618;51.226;4.910;2023-05-07T01:12:40;49709.06;;;-146.94;100.00
56737;BME280;42618;51.226;4.910;2023-05-07T01:15:08;49683.16;;;-146.94;100.00
56737;BME280;42618;51.226;4.910;2023-05-07T01:17:38;49719.03;;;-146.94;100.00
56737;BME280;42618;51.226;4.910;2023-05-07T01:20:07;49683.16;;;-146.94;100.00
56737;BME280;42618;51.226;4.910;2023-05-07T01:22:37;49711.06;;;-146.94;100.00
56737;BME280;42618;51.226;4.910;2023-05-07T01:25:06;49711.06;;;-146.94;100.00
56737;BME280;42618;51.226;4.910;2023-05-07T01:27:35;49697.09;;;-146.94;100.00
56737;BME280;42618;51.226;4.910;2023-05-07T01:30:04;49738.97;;;-146.94;100.00
56737;BME280;42618;51.226;4.910;2023-05-07T01:32:45;49703.09;;;-146.94;100.00
56737;BME280;42618;51.226;4.910;2023-05-07T01:35:19;49731.00;;;-146.94;100.00
56737;BME280;42618;51.226;4.910;2023-05-07T01:37:47;49695.09;;;-146.94;100.00
56737;BME280;42618;51.226;4.910;2023-05-07T01:40:14;49727.00;;;-146.94;100.00
56737;BME280;42618;51.226;4.910;2023-05-07T01:42:43;49671.19;;;-146.94;100.00
56737;BME280;42618;51.226;4.910;2023-05-07T01:45:10;49717.03;;;-146.94;100.00
56737;BME280;42618;51.226;4.910;2023-05-07T01:47:37;49738.97;;;-146.94;100.00
56737;BME280;42618;51.226;4.910;2023-05-07T01:50:07;49727.00;;;-146.94;100.00
56737;BME280;42618;51.226;4.910;2023-05-07T01:52:38;49727.00;;;-146.94;100.00
56737;BME280;42618;51.226;4.910;2023-05-07T01:55:06;49711.06;;;-146.94;100.00
56737;BME280;42618;51.226;4.910;2023-05-07T01:57:33;49705.06;;;-146.94;100.00
56737;BME280;42618;51.226;4.910;2023-05-07T02:00:00;49693.13;;;-146.94;100.00
56737;BME280;42618;51.226;4.910;2023-05-07T02:02:28;49723.03;;;-146.94;100.00
56737;BME280;42618;51.226;4.910;2023-05-07T02:04:57;49705.06;;;-146.94;100.00
56737;BME280;42618;51.226;4.910;2023-05-07T02:07:24;49711.06;;;-146.94;100.00
56737;BME280;42618;51.226;4.910;2023-05-07T02:09:51;49715.03;;;-146.94;100.00
56737;BME280;42618;51.226;4.910;2023-05-07T02:12:18;49707.06;;;-146.94;100.00
56737;BME280;42618;51.226;4.910;2023-05-07T02:14:45;49729.00;;;-146.94;100.00
56737;BME280;42618;51.226;4.910;2023-05-07T02:17:13;49731.00;;;-146.94;100.00
56737;BME280;42618;51.226;4.910;2023-05-07T02:19:39;49695.09;;;-146.94;100.00
56737;BME280;42618;51.226;4.910;2023-05-07T02:22:07;49697.09;;;-146.94;100.00
56737;BME280;42618;51.226;4.910;2023-05-07T02:24:34;49709.06;;;-146.94;100.00
56737;BME280;42618;51.226;4.910;2023-05-07T02:27:00;49727.00;;;-146.94;100.00
56737;BME280;42618;51.226;4.910;2023-05-07T02:29:27;49707.06;;;-146.94;100.00
56737;BME280;42618;51.226;4.910;2023-05-07T02:31:54;49707.06;;;-146.94;100.00
56737;BME280;42618;51.226;4.910;2023-05-07T02:34:21;49693.13;;;-146.94;100.00
56737;BME280;42618;51.226;4.910;2023-05-07T02:36:48;49715.03;;;-146.94;100.00
56737;BME280;42618;51.226;4.910;2023-05-07T02:39:18;49697.09;;;-146.94;100.00
56737;BME280;42618;51.226;4.910;2023-05-07T02:41:45;49707.06;;;-146.94;100.00
56737;BME280;42618;51.226;4.910;2023-05-07T02:44:12;49685.13;;;-146.94;100.00
56737;BME280;42618;51.226;4.910;2023-05-07T02:46:39;49725.00;;;-146.94;100.00
56737;BME280;42618;51.226;4.910;2023-05-07T02:49:09;49723.03;;;-146.94;100.00
56737;BME280;42618;51.226;4.910;2023-05-07T02:51:35;49711.06;;;-146.94;100.00
56737;BME280;42618;51.226;4.910;2023-05-07T02:54:07;49738.97;;;-146.94;100.00
56737;BME280;42618;51.226;4.910;2023-05-07T02:56:34;49683.16;;;-146.94;100.00
56737;BME280;42618;51.226;4.910;2023-05-07T02:59:01;49723.03;;;-146.94;100.00
56737;BME280;42618;51.226;4.910;2023-05-07T03:01:32;49695.09;;;-146.94;100.00
56737;BME280;42618;51.226;4.910;2023-05-07T03:04:04;49711.06;;;-146.94;100.00
56737;BME280;42618;51.226;4.910;2023-05-07T03:06:31;49691.13;;;-146.94;100.00
56737;BME280;42618;51.226;4.910;2023-05-07T03:08:58;49713.06;;;-146.94;100.00
56737;BME280;42618;51.226;4.910;2023-05-07T03:11:25;49703.09;;;-146.94;100.00
56737;BME280;42618;51.226;4.910;2023-05-07T03:13:52;49709.06;;;-146.94;100.00
56737;BME280;42618;51.226;4.910;2023-05-07T03:16:20;49707.06;;;-146.94;100.00
56737;BME280;42618;51.226;4.910;2023-05-07T03:18:47;49719.03;;;-146.94;100.00
56737;BME280;42618;51.226;4.910;2023-05-07T03:21:14;49731.00;;;-146.94;100.00
56737;BME280;42618;51.226;4.910;2023-05-07T03:23:41;49709.06;;;-146.94;100.00
56737;BME280;42618;51.226;4.910;2023-05-07T03:26:07;49725.00;;;-146.94;100.00
56737;BME280;42618;51.226;4.910;2023-05-07T03:28:34;49711.06;;;-146.94;100.00
56737;BME280;42618;51.226;4.910;2023-05-07T03:31:04;49703.09;;;-146.94;100.00
56737;BME280;42618;51.226;4.910;2023-05-07T03:33:49;49683.16;;;-146.94;100.00
56737;BME280;42618;51.226;4.910;2023-05-07T03:36:16;49725.00;;;-146.94;100.00
56737;BME280;42618;51.226;4.910;2023-05-07T03:38:43;49707.06;;;-146.94;100.00
56737;BME280;42618;51.226;4.910;2023-05-07T03:41:10;49711.06;;;-146.94;100.00
56737;BME280;42618;51.226;4.910;2023-05-07T03:43:36;49723.03;;;-146.94;100.00
56737;BME280;42618;51.226;4.910;2023-05-07T03:46:07;49729.00;;;-146.94;100.00
56737;BME280;42618;51.226;4.910;2023-05-07T03:48:34;49727.00;;;-146.94;100.00
56737;BME280;42618;51.226;4.910;2023-05-07T03:51:01;49740.97;;;-146.94;100.00
56737;BME280;42618;51.226;4.910;2023-05-07T03:53:31;49719.03;;;-146.94;100.00
56737;BME280;42618;51.226;4.910;2023-05-07T03:55:58;49691.13;;;-146.94;100.00
56737;BME280;42618;51.226;4.910;2023-05-07T03:58:24;49738.97;;;-146.94;100.00
56737;BME280;42618;51.226;4.910;2023-05-07T04:00:54;49715.03;;;-146.94;100.00
56737;BME280;42618;51.226;4.910;2023-05-07T04:03:25;49703.09;;;-146.94;100.00
56737;BME280;42618;51.226;4.910;2023-05-07T04:05:54;49675.19;;;-146.94;100.00
56737;BME280;42618;51.226;4.910;2023-05-07T04:08:22;49709.06;;;-146.94;100.00
56737;BME280;42618;51.226;4.910;2023-05-07T04:10:56;49719.03;;;-146.94;100.00
56737;BME280;42618;51.226;4.910;2023-05-07T04:13:25;49711.06;;;-146.94;100.00
56737;BME280;42618;51.226;4.910;2023-05-07T04:15:54;49725.00;;;-146.94;100.00
56737;BME280;42618;51.226;4.910;2023-05-07T04:18:21;49727.00;;;-146.94;100.00
56737;BME280;42618;51.226;4.910;2023-05-07T04:20:49;49715.03;;;-146.94;100.00
56737;BME280;42618;51.226;4.910;2023-05-07T04:23:18;49719.03;;;-146.94;100.00
56737;BME280;42618;51.226;4.910;2023-05-07T04:25:45;49713.06;;;-146.94;100.00
56737;BME280;42618;51.226;4.910;2023-05-07T04:28:23;49721.03;;;-146.94;100.00
56737;BME280;42618;51.226;4.910;2023-05-07T04:30:50;49697.09;;;-146.94;100.00
56737;BME280;42618;51.226;4.910;2023-05-07T04:33:18;49707.06;;;-146.94;100.00
56737;BME280;42618;51.226;4.910;2023-05-07T04:35:47;49715.03;;;-146.94;100.00
56737;BME280;42618;51.226;4.910;2023-05-07T04:38:14;49754.91;;;-146.94;100.00
56737;BME280;42618;51.226;4.910;2023-05-07T04:40:41;49723.03;;;-146.94;100.00
56737;BME280;42618;51.226;4.910;2023-05-07T04:43:11;49731.00;;;-146.94;100.00
56737;BME280;42618;51.226;4.910;2023-05-07T04:45:44;49703.09;;;-146.94;100.00
56737;BME280;42618;51.226;4.910;2023-05-07T04:48:11;49723.03;;;-146.94;100.00
56737;BME280;42618;51.226;4.910;2023-05-07T04:50:39;49731.00;;;-146.94;100.00
56737;BME280;42618;51.226;4.910;2023-05-07T04:53:07;49691.13;;;-146.94;100.00
56737;BME280;42618;51.226;4.910;2023-05-07T04:55:34;49731.00;;;-146.94;100.00
56737;BME280;42618;51.226;4.910;2023-05-07T04:58:01;49719.03;;;-146.94;100.00
56737;BME280;42618;51.226;4.910;2023-05-07T05:00:31;49723.03;;;-146.94;100.00
56737;BME280;42618;51.226;4.910;2023-05-07T05:02:59;49766.88;;;-146.94;100.00
56737;BME280;42618;51.226;4.910;2023-05-07T05:05:26;49731.00;;;-146.94;100.00
56737;BME280;42618;51.226;4.910;2023-05-07T05:07:54;49707.06;;;-146.94;100.00
56737;BME280;42618;51.226;4.910;2023-05-07T05:10:22;49713.06;;;-146.94;100.00
56737;BME280;42618;51.226;4.910;2023-05-07T05:12:50;49731.00;;;-146.94;100.00
56737;BME280;42618;51.226;4.910;2023-05-07T05:15:19;49746.94;;;-146.94;100.00
56737;BME280;42618;51.226;4.910;2023-05-07T05:17:45;49738.97;;;-146.94;100.00
56737;BME280;42618;51.226;4.910;2023-05-07T05:20:12;49693.13;;;-146.94;100.00
56737;BME280;42618;51.226;4.910;2023-05-07T05:22:41;49742.94;;;-146.94;100.00
56737;BME280;42618;51.226;4.910;2023-05-07T05:25:09;49719.03;;;-146.94;100.00
56737;BME280;42618;51.226;4.910;2023-05-07T05:27:36;49687.13;;;-146.94;100.00
56737;BME280;42618;51.226;4.910;2023-05-07T05:30:04;49715.03;;;-146.94;100.00
56737;BME280;42618;51.226;4.910;2023-05-07T05:32:34;49727.00;;;-146.94;100.00
56737;BME280;42618;51.226;4.910;2023-05-07T05:35:01;49754.91;;;-146.94;100.00
56737;BME280;42618;51.226;4.910;2023-05-07T05:37:28;49711.06;;;-146.94;100.00
56737;BME280;42618;51.226;4.910;2023-05-07T05:39:58;49713.06;;;-146.94;100.00
56737;BME280;42618;51.226;4.910;2023-05-07T05:42:27;49703.09;;;-146.94;100.00
56737;BME280;42618;51.226;4.910;2023-05-07T05:44:54;49717.03;;;-146.94;100.00
56737;BME280;42618;51.226;4.910;2023-05-07T05:47:22;49693.13;;;-146.94;100.00
56737;BME280;42618;51.226;4.910;2023-05-07T05:49:50;49711.06;;;-146.94;100.00
56737;BME280;42618;51.226;4.910;2023-05-07T05:52:17;49723.03;;;-146.94;100.00
56737;BME280;42618;51.226;4.910;2023-05-07T05:54:45;49734.97;;;-146.94;100.00
56737;BME280;42618;51.226;4.910;2023-05-07T05:57:12;49707.06;;;-146.94;100.00
56737;BME280;42618;51.226;4.910;2023-05-07T05:59:39;49705.06;;;-146.94;100.00
56737;BME280;42618;51.226;4.910;2023-05-07T06:02:06;49738.97;;;-146.94;100.00
56737;BME280;42618;51.226;4.910;2023-05-07T06:04:33;49707.06;;;-146.94;100.00
56737;BME280;42618;51.226;4.910;2023-05-07T06:07:00;49699.09;;;-146.94;100.00
56737;BME280;42618;51.226;4.910;2023-05-07T06:09:27;49707.06;;;-146.94;100.00
56737;BME280;42618;51.226;4.910;2023-05-07T06:11:54;49691.13;;;-146.94;100.00
56737;BME280;42618;51.226;4.910;2023-05-07T06:14:21;49691.13;;;-146.94;100.00
56737;BME280;42618;51.226;4.910;2023-05-07T06:16:48;49709.06;;;-146.94;100.00
56737;BME280;42618;51.226;4.910;2023-05-07T06:19:15;49701.09;;;-146.94;100.00
56737;BME280;42618;51.226;4.910;2023-05-07T06:21:44;49707.06;;;-146.94;100.00
56737;BME280;42618;51.226;4.910;2023-05-07T06:24:11;49723.03;;;-146.94;100.00
56737;BME280;42618;51.226;4.910;2023-05-07T06:26:38;49687.13;;;-146.94;99.97
56737;BME280;42618;51.226;4.910;2023-05-07T06:29:06;49683.16;;;-146.94;99.68
56737;BME280;42618;51.226;4.910;2023-05-07T06:31:33;49703.09;;;-146.94;98.67
56737;BME280;42618;51.226;4.910;2023-05-07T06:34:07;49707.06;;;-146.94;98.13
56737;BME280;42618;51.226;4.910;2023-05-07T06:36:36;49713.06;;;-146.94;98.48
56737;BME280;42618;51.226;4.910;2023-05-07T06:39:26;49719.03;;;-146.94;97.95
56737;BME280;42618;51.226;4.910;2023-05-07T06:41:53;49709.06;;;-146.94;97.01
56737;BME280;42618;51.226;4.910;2023-05-07T06:44:25;49719.03;;;-146.94;96.51
56737;BME280;42618;51.226;4.910;2023-05-07T06:47:07;49665.22;;;-146.94;96.51
56737;BME280;42618;51.226;4.910;2023-05-07T06:49:34;49709.06;;;-146.94;96.25
56737;BME280;42618;51.226;4.910;2023-05-07T06:52:01;49655.25;;;-146.94;96.32
56737;BME280;42618;51.226;4.910;2023-05-07T06:54:29;49699.09;;;-146.94;97.25
56737;BME280;42618;51.226;4.910;2023-05-07T06:56:55;49663.22;;;-146.94;95.69
56737;BME280;42618;51.226;4.910;2023-05-07T06:59:24;49687.13;;;-146.94;95.49
56737;BME280;42618;51.226;4.910;2023-05-07T07:01:52;49687.13;;;-146.94;95.52
56737;BME280;42618;51.226;4.910;2023-05-07T07:04:19;49667.19;;;-146.94;94.63
56737;BME280;42618;51.226;4.910;2023-05-07T07:06:56;49709.06;;;-146.94;94.62
56737;BME280;42618;51.226;4.910;2023-05-07T07:09:23;49699.09;;;-146.94;94.93
56737;BME280;42618;51.226;4.910;2023-05-07T07:11:52;49697.09;;;-146.94;95.11
56737;BME280;42618;51.226;4.910;2023-05-07T07:14:18;49689.13;;;-146.94;94.95
56737;BME280;42618;51.226;4.910;2023-05-07T07:16:49;49701.09;;;-146.94;93.65
56737;BME280;42618;51.226;4.910;2023-05-07T07:19:17;49683.16;;;-146.94;93.62
56737;BME280;42618;51.226;4.910;2023-05-07T07:21:46;49651.25;;;-146.94;93.95
56737;BME280;42618;51.226;4.910;2023-05-07T07:24:13;49701.09;;;-146.94;93.53
56737;BME280;42618;51.226;4.910;2023-05-07T07:26:46;49685.13;;;-146.94;92.63
56737;BME280;42618;51.226;4.910;2023-05-07T07:29:14;49681.16;;;-146.94;93.60
56737;BME280;42618;51.226;4.910;2023-05-07T07:31:42;49695.09;;;-146.94;92.29
56737;BME280;42618;51.226;4.910;2023-05-07T07:34:09;49667.19;;;-146.94;91.95
56737;BME280;42618;51.226;4.910;2023-05-07T07:36:36;49685.13;;;-146.94;91.18
56737;BME280;42618;51.226;4.910;2023-05-07T07:39:14;49663.22;;;-146.94;89.76
56737;BME280;42618;51.226;4.910;2023-05-07T07:41:42;49695.09;;;-146.94;89.95
56737;BME280;42618;51.226;4.910;2023-05-07T07:44:10;49651.25;;;-146.94;90.02
56737;BME280;42618;51.226;4.910;2023-05-07T07:46:45;49681.16;;;-146.94;90.40
56737;BME280;42618;51.226;4.910;2023-05-07T07:49:12;49687.13;;;-146.94;92.22
56737;BME280;42618;51.226;4.910;2023-05-07T07:51:39;49679.16;;;-146.94;91.55
56737;BME280;42618;51.226;4.910;2023-05-07T07:54:05;49697.09;;;-146.94;93.09
56737;BME280;42618;51.226;4.910;2023-05-07T07:56:34;49677.16;;;-146.94;94.44
56737;BME280;42618;51.226;4.910;2023-05-07T07:59:03;49683.16;;;-146.94;94.70
56737;BME280;42618;51.226;4.910;2023-05-07T08:01:31;49671.19;;;-146.94;95.18
56737;BME280;42618;51.226;4.910;2023-05-07T08:03:58;49713.06;;;-146.94;95.40
56737;BME280;42618;51.226;4.910;2023-05-07T08:06:27;49675.19;;;-146.94;95.87
56737;BME280;42618;51.226;4.910;2023-05-07T08:08:54;49655.25;;;-146.94;94.75
56737;BME280;42618;51.226;4.910;2023-05-07T08:11:22;49687.13;;;-146.94;95.07
56737;BME280;42618;51.226;4.910;2023-05-07T08:13:49;49679.16;;;-146.94;93.61
56737;BME280;42618;51.226;4.910;2023-05-07T08:16:17;49659.22;;;-146.94;93.10
56737;BME280;42618;51.226;4.910;2023-05-07T08:18:44;49671.19;;;-146.94;91.19
56737;BME280;42618;51.226;4.910;2023-05-07T08:21:11;49643.28;;;-146.94;89.30
56737;BME280;42618;51.226;4.910;2023-05-07T08:23:38;49681.16;;;-146.94;88.72
56737;BME280;42618;51.226;4.910;2023-05-07T08:26:07;49649.25;;;-146.94;88.27
56737;BME280;42618;51.226;4.910;2023-05-07T08:28:35;49657.22;;;-146.94;88.55
56737;BME280;42618;51.226;4.910;2023-05-07T08:31:02;49659.22;;;-146.94;88.60
56737;BME280;42618;51.226;4.910;2023-05-07T08:33:33;49669.19;;;-146.94;89.77
56737;BME280;42618;51.226;4.910;2023-05-07T08:36:00;49655.25;;;-146.94;88.90
56737;BME280;42618;51.226;4.910;2023-05-07T08:38:27;49659.22;;;-146.94;87.33
56737;BME280;42618;51.226;4.910;2023-05-07T08:40:54;49673.19;;;-146.94;87.29
56737;BME280;42618;51.226;4.910;2023-05-07T08:43:23;49671.19;;;-146.94;85.71
56737;BME280;42618;51.226;4.910;2023-05-07T08:45:59;49627.31;;;-146.94;84.48
56737;BME280;42618;51.226;4.910;2023-05-07T08:48:32;49625.34;;;-146.94;81.48
56737;BME280;42618;51.226;4.910;2023-05-07T08:51:06;49677.16;;;-146.94;81.33
56737;BME280;42618;51.226;4.910;2023-05-07T08:53:33;49635.31;;;-146.94;80.83
56737;BME280;42618;51.226;4.910;2023-05-07T08:56:02;49649.25;;;-146.94;81.91
56737;BME280;42618;51.226;4.910;2023-05-07T08:58:29;49647.25;;;-146.94;81.17
56737;BME280;42618;51.226;4.910;2023-05-07T09:00:56;49647.25;;;-146.94;79.88
56737;BME280;42618;51.226;4.910;2023-05-07T09:03:23;49655.25;;;-146.94;78.52
56737;BME280;42618;51.226;4.910;2023-05-07T09:05:53;49653.25;;;-146.94;78.74
56737;BME280;42618;51.226;4.910;2023-05-07T09:08:24;49679.16;;;-146.94;79.48
56737;BME280;42618;51.226;4.910;2023-05-07T09:10:53;49669.19;;;-146.94;81.22
56737;BME280;42618;51.226;4.910;2023-05-07T09:13:22;49627.31;;;-146.94;80.73
56737;BME280;42618;51.226;4.910;2023-05-07T09:15:49;49663.22;;;-146.94;80.46
56737;BME280;42618;51.226;4.910;2023-05-07T09:18:16;49667.19;;;-146.94;80.12
56737;BME280;42618;51.226;4.910;2023-05-07T09:20:46;49649.25;;;-146.94;80.27
56737;BME280;42618;51.226;4.910;2023-05-07T09:23:13;49659.22;;;-146.94;80.87
56737;BME280;42618;51.226;4.910;2023-05-07T09:25:42;49665.22;;;-146.94;81.97
56737;BME280;42618;51.226;4.910;2023-05-07T09:28:15;49643.28;;;-146.94;81.55
56737;BME280;42618;51.226;4.910;2023-05-07T09:30:43;49659.22;;;-146.94;79.08
56737;BME280;42618;51.226;4.910;2023-05-07T09:33:12;49669.19;;;-146.94;80.18
56737;BME280;42618;51.226;4.910;2023-05-07T09:35:42;49663.22;;;-146.94;81.04
56737;BME280;42618;51.226;4.910;2023-05-07T09:38:14;49675.19;;;-146.94;83.03
56737;BME280;42618;51.226;4.910;2023-05-07T09:40:44;49687.13;;;-146.94;81.14
56737;BME280;42618;51.226;4.910;2023-05-07T09:43:13;49653.25;;;-146.94;83.29
56737;BME280;42618;51.226;4.910;2023-05-07T09:45:55;49695.09;;;-146.94;82.77
56737;BME280;42618;51.226;4.910;2023-05-07T09:48:25;49645.28;;;-146.94;82.89
56737;BME280;42618;51.226;4.910;2023-05-07T09:50:55;49669.19;;;-146.94;85.23
56737;BME280;42618;51.226;4.910;2023-05-07T09:53:29;49685.13;;;-146.94;89.98
56737;BME280;42618;51.226;4.910;2023-05-07T09:55:58;49655.25;;;-146.94;91.18
56737;BME280;42618;51.226;4.910;2023-05-07T09:58:26;49651.25;;;-146.94;93.71
56737;BME280;42618;51.226;4.910;2023-05-07T10:00:54;49663.22;;;-146.94;94.70
56737;BME280;42618;51.226;4.910;2023-05-07T10:03:21;49689.13;;;-146.94;96.79
56737;BME280;42618;51.226;4.910;2023-05-07T10:05:55;49683.16;;;-146.94;96.31
56737;BME280;42618;51.226;4.910;2023-05-07T10:08:22;49683.16;;;-146.94;97.68
56737;BME280;42618;51.226;4.910;2023-05-07T10:10:52;49683.16;;;-146.94;98.41
56737;BME280;42618;51.226;4.910;2023-05-07T10:13:22;49671.19;;;-146.94;99.24
56737;BME280;42618;51.226;4.910;2023-05-07T10:15:53;49671.19;;;-146.94;99.83
56737;BME280;42618;51.226;4.910;2023-05-07T10:18:24;49685.13;;;-146.94;100.00
56737;BME280;42618;51.226;4.910;2023-05-07T10:21:07;49665.22;;;-146.94;100.00
56737;BME280;42618;51.226;4.910;2023-05-07T10:23:36;49675.19;;;-146.94;100.00
56737;BME280;42618;51.226;4.910;2023-05-07T10:26:06;49645.28;;;-146.94;100.00
56737;BME280;42618;51.226;4.910;2023-05-07T10:28:38;49683.16;;;-146.94;100.00
56737;BME280;42618;51.226;4.910;2023-05-07T10:31:33;49663.22;;;-146.94;100.00
56737;BME280;42618;51.226;4.910;2023-05-07T10:34:12;49683.16;;;-146.94;100.00
56737;BME280;42618;51.226;4.910;2023-05-07T10:36:40;49707.06;;;-146.94;100.00
56737;BME280;42618;51.226;4.910;2023-05-07T10:39:08;49675.19;;;-146.94;100.00
56737;BME280;42618;51.226;4.910;2023-05-07T10:41:36;49683.16;;;-146.94;100.00
56737;BME280;42618;51.226;4.910;2023-05-07T10:44:03;49675.19;;;-146.94;100.00
56737;BME280;42618;51.226;4.910;2023-05-07T10:46:33;49667.19;;;-146.94;100.00
56737;BME280;42618;51.226;4.910;2023-05-07T10:49:22;49693.13;;;-146.94;100.00
56737;BME280;42618;51.226;4.910;2023-05-07T10:52:18;49659.22;;;-146.94;100.00
56737;BME280;42618;51.226;4.910;2023-05-07T10:57:43;49647.25;;;-146.94;100.00
56737;BME280;42618;51.226;4.910;2023-05-07T11:03:08;49685.13;;;-146.94;100.00
56737;BME280;42618;51.226;4.910;2023-05-07T11:05:44;49643.28;;;-146.94;100.00
56737;BME280;42618;51.226;4.910;2023-05-07T11:08:19;49687.13;;;-146.94;100.00
56737;BME280;42618;51.226;4.910;2023-05-07T11:11:02;49693.13;;;-146.94;100.00
56737;BME280;42618;51.226;4.910;2023-05-07T11:16:22;49711.06;;;-146.94;100.00
56737;BME280;42618;51.226;4.910;2023-05-07T11:18:57;49673.19;;;-146.94;100.00
56737;BME280;42618;51.226;4.910;2023-05-07T11:24:07;49715.03;;;-146.94;100.00
56737;BME280;42618;51.226;4.910;2023-05-07T11:26:46;49705.06;;;-146.94;100.00
56737;BME280;42618;51.226;4.910;2023-05-07T11:29:16;49657.22;;;-146.94;100.00
56737;BME280;42618;51.226;4.910;2023-05-07T11:31:49;49675.19;;;-146.94;100.00
56737;BME280;42618;51.226;4.910;2023-05-07T11:34:26;49669.19;;;-146.94;100.00
56737;BME280;42618;51.226;4.910;2023-05-07T11:36:55;49643.28;;;-146.94;100.00
56737;BME280;42618;51.226;4.910;2023-05-07T11:39:34;49641.28;;;-146.94;100.00
56737;BME280;42618;51.226;4.910;2023-05-07T11:42:02;49685.13;;;-146.94;100.00
56737;BME280;42618;51.226;4.910;2023-05-07T11:44:45;49681.16;;;-146.94;100.00
56737;BME280;42618;51.226;4.910;2023-05-07T11:47:21;49752.91;;;-146.94;100.00
56737;BME280;42618;51.226;4.910;2023-05-07T11:49:50;49709.06;;;-146.94;100.00
56737;BME280;42618;51.226;4.910;2023-05-07T11:52:18;49707.06;;;-146.94;100.00
56737;BME280;42618;51.226;4.910;2023-05-07T11:54:55;49689.13;;;-146.94;100.00
56737;BME280;42618;51.226;4.910;2023-05-07T11:57:25;49715.03;;;-146.94;100.00
56737;BME280;42618;51.226;4.910;2023-05-07T11:59:56;49683.16;;;-146.94;100.00
56737;BME280;42618;51.226;4.910;2023-05-07T12:02:24;49679.16;;;-146.94;100.00
56737;BME280;42618;51.226;4.910;2023-05-07T12:04:52;49719.03;;;-146.94;100.00
56737;BME280;42618;51.226;4.910;2023-05-07T12:07:18;49679.16;;;-146.94;100.00
56737;BME280;42618;51.226;4.910;2023-05-07T12:09:46;49675.19;;;-146.94;100.00
56737;BME280;42618;51.226;4.910;2023-05-07T12:12:14;49705.06;;;-146.94;100.00
56737;BME280;42618;51.226;4.910;2023-05-07T12:14:43;49679.16;;;-146.94;100.00
56737;BME280;42618;51.226;4.910;2023-05-07T12:17:12;49701.09;;;-146.94;100.00
56737;BME280;42618;51.226;4.910;2023-05-07T12:19:41;49679.16;;;-146.94;100.00
56737;BME280;42618;51.226;4.910;2023-05-07T12:22:09;49667.19;;;-146.94;100.00
56737;BME280;42618;51.226;4.910;2023-05-07T12:24:46;49717.03;;;-146.94;100.00
56737;BME280;42618;51.226;4.910;2023-05-07T12:27:15;49673.19;;;-146.94;100.00
56737;BME280;42618;51.226;4.910;2023-05-07T12:29:49;49655.25;;;-146.94;97.02
56737;BME280;42618;51.226;4.910;2023-05-07T12:32:17;49689.13;;;-146.94;97.88
56737;BME280;42618;51.226;4.910;2023-05-07T12:34:45;49713.06;;;-146.94;97.70
56737;BME280;42618;51.226;4.910;2023-05-07T12:37:12;49679.16;;;-146.94;97.75
56737;BME280;42618;51.226;4.910;2023-05-07T12:39:49;49685.13;;;-146.94;97.57
56737;BME280;42618;51.226;4.910;2023-05-07T12:42:18;49647.25;;;-146.94;96.36
56737;BME280;42618;51.226;4.910;2023-05-07T12:44:46;49695.09;;;-146.94;96.53
56737;BME280;42618;51.226;4.910;2023-05-07T12:47:14;49679.16;;;-146.94;96.06
56737;BME280;42618;51.226;4.910;2023-05-07T12:49:41;49663.22;;;-146.94;94.75
56737;BME280;42618;51.226;4.910;2023-05-07T12:52:08;49679.16;;;-146.94;95.84
56737;BME280;42618;51.226;4.910;2023-05-07T12:54:37;49679.16;;;-146.94;97.13